sensor_id;sensor_type;location;lat;lon;timestamp;P1;durP1;ratioP1;P2;durP2;ratioP2
35114;SDS011;21292;52.416;13.046;2024-03-08T00:00:13;40.00;;;18.98;;
35114;SDS011;21292;52.416;13.046;2024-03-08T00:02:45;38.25;;;18.50;;
35114;SDS011;21292;52.416;13.046;2024-03-08T00:05:14;42.17;;;20.15;;
35114;SDS011;21292;52.416;13.046;2024-03-08T00:07:44;41.45;;;18.35;;
35114;SDS011;21292;52.416;13.046;2024-03-08T00:10:13;42.47;;;19.63;;
35114;SDS011;21292;52.416;13.046;2024-03-08T00:12:42;41.42;;;18.70;;
35114;SDS011;21292;52.416;13.046;2024-03-08T00:15:12;43.83;;;20.23;;
35114;SDS011;21292;52.416;13.046;2024-03-08T00:17:42;40.60;;;20.20;;
35114;SDS011;21292;52.416;13.046;2024-03-08T00:20:12;44.72;;;20.33;;
35114;SDS011;21292;52.416;13.046;2024-03-08T00:22:41;42.97;;;19.67;;
35114;SDS011;21292;52.416;13.046;2024-03-08T00:25:11;46.85;;;21.40;;
35114;SDS011;21292;52.416;13.046;2024-03-08T00:27:40;40.53;;;20.80;;
35114;SDS011;21292;52.416;13.046;2024-03-08T00:30:09;47.70;;;21.17;;
35114;SDS011;21292;52.416;13.046;2024-03-08T00:32:37;39.75;;;19.83;;
35114;SDS011;21292;52.416;13.046;2024-03-08T00:35:06;44.13;;;19.70;;
35114;SDS011;21292;52.416;13.046;2024-03-08T00:37:35;44.47;;;19.67;;
35114;SDS011;21292;52.416;13.046;2024-03-08T00:40:04;42.75;;;20.00;;
35114;SDS011;21292;52.416;13.046;2024-03-08T00:42:35;45.67;;;20.33;;
35114;SDS011;21292;52.416;13.046;2024-03-08T00:45:05;45.65;;;20.75;;
35114;SDS011;21292;52.416;13.046;2024-03-08T00:47:34;43.65;;;20.13;;
35114;SDS011;21292;52.416;13.046;2024-03-08T00:50:03;48.78;;;20.48;;
35114;SDS011;21292;52.416;13.046;2024-03-08T00:52:32;39.15;;;20.25;;
35114;SDS011;21292;52.416;13.046;2024-03-08T00:55:01;46.15;;;20.05;;
35114;SDS011;21292;52.416;13.046;2024-03-08T00:57:30;43.33;;;20.20;;
35114;SDS011;21292;52.416;13.046;2024-03-08T00:59:59;43.85;;;20.00;;
35114;SDS011;21292;52.416;13.046;2024-03-08T01:02:27;42.03;;;20.08;;
35114;SDS011;21292;52.416;13.046;2024-03-08T01:04:56;43.47;;;21.40;;
35114;SDS011;21292;52.416;13.046;2024-03-08T01:07:24;44.53;;;20.05;;
35114;SDS011;21292;52.416;13.046;2024-03-08T01:09:53;46.13;;;20.08;;
35114;SDS011;21292;52.416;13.046;2024-03-08T01:12:21;43.17;;;20.13;;
35114;SDS011;21292;52.416;13.046;2024-03-08T01:14:49;45.65;;;21.35;;
35114;SDS011;21292;52.416;13.046;2024-03-08T01:17:19;47.20;;;20.65;;
35114;SDS011;21292;52.416;13.046;2024-03-08T01:19:47;47.88;;;21.67;;
35114;SDS011;21292;52.416;13.046;2024-03-08T01:22:15;44.97;;;22.23;;
35114;SDS011;21292;52.416;13.046;2024-03-08T01:24:43;38.28;;;19.92;;
35114;SDS011;21292;52.416;13.046;2024-03-08T01:27:11;45.83;;;21.50;;
35114;SDS011;21292;52.416;13.046;2024-03-08T01:29:40;45.63;;;21.40;;
35114;SDS011;21292;52.416;13.046;2024-03-08T01:32:08;46.33;;;20.85;;
35114;SDS011;21292;52.416;13.046;2024-03-08T01:34:38;39.80;;;19.95;;
35114;SDS011;21292;52.416;13.046;2024-03-08T01:37:06;44.80;;;20.02;;
35114;SDS011;21292;52.416;13.046;2024-03-08T01:39:34;53.63;;;22.58;;
35114;SDS011;21292;52.416;13.046;2024-03-08T01:44:37;44.60;;;21.90;;
35114;SDS011;21292;52.416;13.046;2024-03-08T01:47:06;52.67;;;22.10;;
35114;SDS011;21292;52.416;13.046;2024-03-08T01:49:34;41.78;;;20.30;;
35114;SDS011;21292;52.416;13.046;2024-03-08T01:52:03;48.20;;;22.38;;
35114;SDS011;21292;52.416;13.046;2024-03-08T01:54:32;52.70;;;21.55;;
35114;SDS011;21292;52.416;13.046;2024-03-08T01:57:00;51.10;;;22.70;;
35114;SDS011;21292;52.416;13.046;2024-03-08T01:59:28;48.42;;;22.10;;
35114;SDS011;21292;52.416;13.046;2024-03-08T02:01:57;53.80;;;23.45;;
35114;SDS011;21292;52.416;13.046;2024-03-08T02:04:29;47.83;;;22.63;;
35114;SDS011;21292;52.416;13.046;2024-03-08T02:06:58;54.13;;;23.83;;
35114;SDS011;21292;52.416;13.046;2024-03-08T02:09:28;49.60;;;22.75;;
35114;SDS011;21292;52.416;13.046;2024-03-08T02:11:56;52.42;;;25.55;;
35114;SDS011;21292;52.416;13.046;2024-03-08T02:14:25;55.38;;;24.40;;
35114;SDS011;21292;52.416;13.046;2024-03-08T02:16:53;46.78;;;22.48;;
35114;SDS011;21292;52.416;13.046;2024-03-08T02:19:21;52.67;;;23.30;;
35114;SDS011;21292;52.416;13.046;2024-03-08T02:21:50;47.00;;;24.98;;
35114;SDS011;21292;52.416;13.046;2024-03-08T02:24:18;53.00;;;23.33;;
35114;SDS011;21292;52.416;13.046;2024-03-08T02:26:46;53.05;;;23.27;;
35114;SDS011;21292;52.416;13.046;2024-03-08T02:29:15;53.72;;;24.45;;
35114;SDS011;21292;52.416;13.046;2024-03-08T02:31:43;48.97;;;23.45;;
35114;SDS011;21292;52.416;13.046;2024-03-08T02:34:11;49.15;;;23.63;;
35114;SDS011;21292;52.416;13.046;2024-03-08T02:36:39;47.33;;;23.67;;
35114;SDS011;21292;52.416;13.046;2024-03-08T02:39:10;49.50;;;23.10;;
35114;SDS011;21292;52.416;13.046;2024-03-08T02:41:38;48.42;;;22.33;;
35114;SDS011;21292;52.416;13.046;2024-03-08T02:44:06;50.95;;;22.55;;
35114;SDS011;21292;52.416;13.046;2024-03-08T02:46:34;55.50;;;22.95;;
35114;SDS011;21292;52.416;13.046;2024-03-08T02:49:03;53.55;;;22.30;;
35114;SDS011;21292;52.416;13.046;2024-03-08T02:51:31;49.83;;;23.55;;
35114;SDS011;21292;52.416;13.046;2024-03-08T02:54:02;53.03;;;23.17;;
35114;SDS011;21292;52.416;13.046;2024-03-08T02:56:32;59.17;;;22.27;;
35114;SDS011;21292;52.416;13.046;2024-03-08T02:59:02;48.22;;;22.50;;
35114;SDS011;21292;52.416;13.046;2024-03-08T03:01:30;51.28;;;22.65;;
35114;SDS011;21292;52.416;13.046;2024-03-08T03:03:58;51.95;;;22.20;;
35114;SDS011;21292;52.416;13.046;2024-03-08T03:06:27;42.15;;;20.58;;
35114;SDS011;21292;52.416;13.046;2024-03-08T03:08:55;45.70;;;21.33;;
35114;SDS011;21292;52.416;13.046;2024-03-08T03:11:24;53.10;;;21.90;;
35114;SDS011;21292;52.416;13.046;2024-03-08T03:13:53;48.53;;;22.35;;
35114;SDS011;21292;52.416;13.046;2024-03-08T03:16:22;45.30;;;21.52;;
35114;SDS011;21292;52.416;13.046;2024-03-08T03:18:51;47.65;;;22.38;;
35114;SDS011;21292;52.416;13.046;2024-03-08T03:21:19;44.58;;;21.27;;
35114;SDS011;21292;52.416;13.046;2024-03-08T03:23:48;45.08;;;22.38;;
35114;SDS011;21292;52.416;13.046;2024-03-08T03:26:16;47.50;;;20.88;;
35114;SDS011;21292;52.416;13.046;2024-03-08T03:28:45;50.70;;;22.35;;
35114;SDS011;21292;52.416;13.046;2024-03-08T03:31:14;49.40;;;22.27;;
35114;SDS011;21292;52.416;13.046;2024-03-08T03:33:44;49.00;;;21.83;;
35114;SDS011;21292;52.416;13.046;2024-03-08T03:36:12;52.70;;;22.08;;
35114;SDS011;21292;52.416;13.046;2024-03-08T03:38:41;49.28;;;22.15;;
35114;SDS011;21292;52.416;13.046;2024-03-08T03:41:09;46.47;;;20.80;;
35114;SDS011;21292;52.416;13.046;2024-03-08T03:43:38;48.55;;;20.75;;
35114;SDS011;21292;52.416;13.046;2024-03-08T03:46:06;57.88;;;23.30;;
35114;SDS011;21292;52.416;13.046;2024-03-08T03:48:36;50.45;;;21.85;;
35114;SDS011;21292;52.416;13.046;2024-03-08T03:51:04;44.65;;;20.55;;
35114;SDS011;21292;52.416;13.046;2024-03-08T03:53:32;45.95;;;22.15;;
35114;SDS011;21292;52.416;13.046;2024-03-08T03:56:00;53.50;;;22.23;;
35114;SDS011;21292;52.416;13.046;2024-03-08T03:58:28;47.67;;;22.02;;
35114;SDS011;21292;52.416;13.046;2024-03-08T04:00:57;58.65;;;22.52;;
35114;SDS011;21292;52.416;13.046;2024-03-08T04:03:25;50.72;;;22.17;;
35114;SDS011;21292;52.416;13.046;2024-03-08T04:05:54;47.97;;;22.10;;
35114;SDS011;21292;52.416;13.046;2024-03-08T04:08:23;55.20;;;22.00;;
35114;SDS011;21292;52.416;13.046;2024-03-08T04:10:51;49.78;;;22.95;;
35114;SDS011;21292;52.416;13.046;2024-03-08T04:13:19;50.33;;;21.83;;
35114;SDS011;21292;52.416;13.046;2024-03-08T04:15:47;56.20;;;21.38;;
35114;SDS011;21292;52.416;13.046;2024-03-08T04:18:16;52.15;;;21.42;;
35114;SDS011;21292;52.416;13.046;2024-03-08T04:20:45;59.92;;;22.83;;
35114;SDS011;21292;52.416;13.046;2024-03-08T04:23:15;57.03;;;22.65;;
35114;SDS011;21292;52.416;13.046;2024-03-08T04:25:44;56.47;;;24.25;;
35114;SDS011;21292;52.416;13.046;2024-03-08T04:28:13;44.28;;;21.13;;
35114;SDS011;21292;52.416;13.046;2024-03-08T04:30:41;48.10;;;23.35;;
35114;SDS011;21292;52.416;13.046;2024-03-08T04:33:10;45.78;;;21.63;;
35114;SDS011;21292;52.416;13.046;2024-03-08T04:35:38;54.00;;;24.70;;
35114;SDS011;21292;52.416;13.046;2024-03-08T04:38:06;54.50;;;23.20;;
35114;SDS011;21292;52.416;13.046;2024-03-08T04:40:36;56.63;;;24.15;;
35114;SDS011;21292;52.416;13.046;2024-03-08T04:43:04;49.85;;;23.00;;
35114;SDS011;21292;52.416;13.046;2024-03-08T04:45:33;45.25;;;22.58;;
35114;SDS011;21292;52.416;13.046;2024-03-08T04:48:02;51.22;;;23.02;;
35114;SDS011;21292;52.416;13.046;2024-03-08T04:50:30;47.33;;;22.10;;
35114;SDS011;21292;52.416;13.046;2024-03-08T04:52:58;48.17;;;22.85;;
35114;SDS011;21292;52.416;13.046;2024-03-08T04:55:26;51.15;;;23.98;;
35114;SDS011;21292;52.416;13.046;2024-03-08T04:57:55;54.70;;;24.02;;
35114;SDS011;21292;52.416;13.046;2024-03-08T05:00:24;52.60;;;23.55;;
35114;SDS011;21292;52.416;13.046;2024-03-08T05:02:52;55.97;;;24.38;;
35114;SDS011;21292;52.416;13.046;2024-03-08T05:05:20;62.67;;;23.50;;
35114;SDS011;21292;52.416;13.046;2024-03-08T05:07:49;55.58;;;23.88;;
35114;SDS011;21292;52.416;13.046;2024-03-08T05:10:18;57.08;;;24.52;;
35114;SDS011;21292;52.416;13.046;2024-03-08T05:12:46;49.55;;;21.75;;
35114;SDS011;21292;52.416;13.046;2024-03-08T05:15:15;54.97;;;24.88;;
35114;SDS011;21292;52.416;13.046;2024-03-08T05:17:44;56.33;;;24.80;;
35114;SDS011;21292;52.416;13.046;2024-03-08T05:20:13;62.63;;;25.35;;
35114;SDS011;21292;52.416;13.046;2024-03-08T05:22:41;54.58;;;23.63;;
35114;SDS011;21292;52.416;13.046;2024-03-08T05:25:10;60.13;;;26.02;;
35114;SDS011;21292;52.416;13.046;2024-03-08T05:27:39;60.25;;;24.17;;
35114;SDS011;21292;52.416;13.046;2024-03-08T05:30:07;57.33;;;24.33;;
35114;SDS011;21292;52.416;13.046;2024-03-08T05:32:42;66.13;;;24.23;;
35114;SDS011;21292;52.416;13.046;2024-03-08T05:35:11;59.50;;;25.27;;
35114;SDS011;21292;52.416;13.046;2024-03-08T05:37:40;58.20;;;25.08;;
35114;SDS011;21292;52.416;13.046;2024-03-08T05:40:09;53.00;;;25.05;;
35114;SDS011;21292;52.416;13.046;2024-03-08T05:42:43;48.70;;;23.15;;
35114;SDS011;21292;52.416;13.046;2024-03-08T05:45:11;53.08;;;23.77;;
35114;SDS011;21292;52.416;13.046;2024-03-08T05:47:42;61.60;;;25.40;;
35114;SDS011;21292;52.416;13.046;2024-03-08T05:50:11;65.35;;;25.88;;
35114;SDS011;21292;52.416;13.046;2024-03-08T05:52:39;62.40;;;27.73;;
35114;SDS011;21292;52.416;13.046;2024-03-08T05:55:07;56.92;;;23.95;;
35114;SDS011;21292;52.416;13.046;2024-03-08T05:57:37;53.90;;;25.38;;
35114;SDS011;21292;52.416;13.046;2024-03-08T06:00:07;62.33;;;25.88;;
35114;SDS011;21292;52.416;13.046;2024-03-08T06:02:38;59.00;;;26.17;;
35114;SDS011;21292;52.416;13.046;2024-03-08T06:05:10;59.00;;;26.20;;
35114;SDS011;21292;52.416;13.046;2024-03-08T06:07:38;57.45;;;26.23;;
35114;SDS011;21292;52.416;13.046;2024-03-08T06:10:08;65.57;;;26.20;;
35114;SDS011;21292;52.416;13.046;2024-03-08T06:12:39;57.80;;;24.30;;
35114;SDS011;21292;52.416;13.046;2024-03-08T06:15:09;58.15;;;26.40;;
35114;SDS011;21292;52.416;13.046;2024-03-08T06:17:42;60.85;;;24.77;;
35114;SDS011;21292;52.416;13.046;2024-03-08T06:20:12;63.55;;;25.90;;
35114;SDS011;21292;52.416;13.046;2024-03-08T06:22:41;63.83;;;26.45;;
35114;SDS011;21292;52.416;13.046;2024-03-08T06:25:09;62.08;;;26.38;;
35114;SDS011;21292;52.416;13.046;2024-03-08T06:27:40;52.77;;;20.70;;
35114;SDS011;21292;52.416;13.046;2024-03-08T06:30:09;63.40;;;28.08;;
35114;SDS011;21292;52.416;13.046;2024-03-08T06:32:39;60.03;;;25.98;;
35114;SDS011;21292;52.416;13.046;2024-03-08T06:35:09;53.70;;;23.70;;
35114;SDS011;21292;52.416;13.046;2024-03-08T06:37:58;57.63;;;24.92;;
35114;SDS011;21292;52.416;13.046;2024-03-08T06:40:26;54.13;;;24.50;;
35114;SDS011;21292;52.416;13.046;2024-03-08T06:42:55;56.92;;;25.33;;
35114;SDS011;21292;52.416;13.046;2024-03-08T06:45:23;54.72;;;24.38;;
35114;SDS011;21292;52.416;13.046;2024-03-08T06:47:52;61.55;;;25.92;;
35114;SDS011;21292;52.416;13.046;2024-03-08T06:50:21;54.25;;;25.30;;
35114;SDS011;21292;52.416;13.046;2024-03-08T06:52:50;54.40;;;24.13;;
35114;SDS011;21292;52.416;13.046;2024-03-08T06:55:21;53.67;;;23.85;;
35114;SDS011;21292;52.416;13.046;2024-03-08T06:57:58;43.58;;;22.77;;
35114;SDS011;21292;52.416;13.046;2024-03-08T07:00:26;54.25;;;23.88;;
35114;SDS011;21292;52.416;13.046;2024-03-08T07:02:56;51.22;;;24.08;;
35114;SDS011;21292;52.416;13.046;2024-03-08T07:05:28;47.22;;;21.70;;
35114;SDS011;21292;52.416;13.046;2024-03-08T07:07:58;53.17;;;23.50;;
35114;SDS011;21292;52.416;13.046;2024-03-08T07:10:27;49.22;;;23.35;;
35114;SDS011;21292;52.416;13.046;2024-03-08T07:12:55;48.53;;;21.38;;
35114;SDS011;21292;52.416;13.046;2024-03-08T07:15:23;44.08;;;20.90;;
35114;SDS011;21292;52.416;13.046;2024-03-08T07:17:52;46.42;;;21.98;;
35114;SDS011;21292;52.416;13.046;2024-03-08T07:20:20;46.42;;;22.33;;
35114;SDS011;21292;52.416;13.046;2024-03-08T07:22:48;47.35;;;23.52;;
35114;SDS011;21292;52.416;13.046;2024-03-08T07:25:17;49.40;;;22.63;;
35114;SDS011;21292;52.416;13.046;2024-03-08T07:27:51;46.15;;;22.65;;
35114;SDS011;21292;52.416;13.046;2024-03-08T07:30:20;52.45;;;22.88;;
35114;SDS011;21292;52.416;13.046;2024-03-08T07:33:06;145.77;;;72.95;;
35114;SDS011;21292;52.416;13.046;2024-03-08T07:35:38;45.38;;;25.35;;
35114;SDS011;21292;52.416;13.046;2024-03-08T07:38:07;46.33;;;21.10;;
35114;SDS011;21292;52.416;13.046;2024-03-08T07:40:37;44.63;;;21.30;;
35114;SDS011;21292;52.416;13.046;2024-03-08T07:43:09;50.10;;;21.55;;
35114;SDS011;21292;52.416;13.046;2024-03-08T07:45:37;50.15;;;22.48;;
35114;SDS011;21292;52.416;13.046;2024-03-08T07:48:06;47.05;;;22.88;;
35114;SDS011;21292;52.416;13.046;2024-03-08T07:50:37;43.03;;;22.80;;
35114;SDS011;21292;52.416;13.046;2024-03-08T07:53:08;44.70;;;20.83;;
35114;SDS011;21292;52.416;13.046;2024-03-08T07:55:37;44.70;;;20.17;;
35114;SDS011;21292;52.416;13.046;2024-03-08T07:58:06;42.47;;;21.05;;
35114;SDS011;21292;52.416;13.046;2024-03-08T08:00:39;42.60;;;20.88;;
35114;SDS011;21292;52.416;13.046;2024-03-08T08:03:09;45.72;;;20.70;;
35114;SDS011;21292;52.416;13.046;2024-03-08T08:05:38;39.30;;;20.55;;
35114;SDS011;21292;52.416;13.046;2024-03-08T08:08:07;45.80;;;21.50;;
35114;SDS011;21292;52.416;13.046;2024-03-08T08:10:37;46.65;;;20.40;;
35114;SDS011;21292;52.416;13.046;2024-03-08T08:13:05;97.85;;;54.28;;
35114;SDS011;21292;52.416;13.046;2024-03-08T08:15:34;42.90;;;23.70;;
35114;SDS011;21292;52.416;13.046;2024-03-08T08:18:03;37.55;;;20.13;;
35114;SDS011;21292;52.416;13.046;2024-03-08T08:20:33;42.90;;;21.13;;
35114;SDS011;21292;52.416;13.046;2024-03-08T08:23:02;40.03;;;20.75;;
35114;SDS011;21292;52.416;13.046;2024-03-08T08:25:30;40.33;;;19.88;;
35114;SDS011;21292;52.416;13.046;2024-03-08T08:28:02;41.00;;;20.27;;
35114;SDS011;21292;52.416;13.046;2024-03-08T08:30:31;42.13;;;18.45;;
35114;SDS011;21292;52.416;13.046;2024-03-08T08:33:00;47.40;;;20.52;;
35114;SDS011;21292;52.416;13.046;2024-03-08T08:35:30;39.67;;;19.63;;
35114;SDS011;21292;52.416;13.046;2024-03-08T08:37:59;46.38;;;21.63;;
35114;SDS011;21292;52.416;13.046;2024-03-08T08:40:31;48.88;;;21.88;;
35114;SDS011;21292;52.416;13.046;2024-03-08T08:42:59;46.42;;;21.60;;
35114;SDS011;21292;52.416;13.046;2024-03-08T08:45:27;39.22;;;20.65;;
35114;SDS011;21292;52.416;13.046;2024-03-08T08:47:57;43.45;;;19.95;;
35114;SDS011;21292;52.416;13.046;2024-03-08T08:50:27;44.75;;;21.77;;
35114;SDS011;21292;52.416;13.046;2024-03-08T08:52:56;39.38;;;20.65;;
35114;SDS011;21292;52.416;13.046;2024-03-08T08:55:25;47.67;;;20.15;;
35114;SDS011;21292;52.416;13.046;2024-03-08T08:57:54;39.05;;;19.85;;
35114;SDS011;21292;52.416;13.046;2024-03-08T09:00:23;39.70;;;19.42;;
35114;SDS011;21292;52.416;13.046;2024-03-08T09:02:54;33.50;;;17.77;;
35114;SDS011;21292;52.416;13.046;2024-03-08T09:05:25;39.35;;;19.40;;
35114;SDS011;21292;52.416;13.046;2024-03-08T09:07:53;41.75;;;19.50;;
35114;SDS011;21292;52.416;13.046;2024-03-08T09:10:23;38.15;;;19.92;;
35114;SDS011;21292;52.416;13.046;2024-03-08T09:12:55;38.25;;;20.02;;
35114;SDS011;21292;52.416;13.046;2024-03-08T09:15:23;37.55;;;19.45;;
35114;SDS011;21292;52.416;13.046;2024-03-08T09:17:56;35.53;;;17.40;;
35114;SDS011;21292;52.416;13.046;2024-03-08T09:20:26;36.08;;;18.38;;
35114;SDS011;21292;52.416;13.046;2024-03-08T09:22:55;32.75;;;18.08;;
35114;SDS011;21292;52.416;13.046;2024-03-08T09:25:24;25.40;;;14.13;;
35114;SDS011;21292;52.416;13.046;2024-03-08T09:27:53;33.13;;;16.48;;
35114;SDS011;21292;52.416;13.046;2024-03-08T09:30:21;32.08;;;17.65;;
35114;SDS011;21292;52.416;13.046;2024-03-08T09:32:50;29.30;;;15.02;;
35114;SDS011;21292;52.416;13.046;2024-03-08T09:35:19;32.83;;;17.27;;
35114;SDS011;21292;52.416;13.046;2024-03-08T09:37:47;35.42;;;17.15;;
35114;SDS011;21292;52.416;13.046;2024-03-08T09:40:18;29.02;;;16.02;;
35114;SDS011;21292;52.416;13.046;2024-03-08T09:42:49;30.15;;;17.83;;
35114;SDS011;21292;52.416;13.046;2024-03-08T09:45:17;35.65;;;17.90;;
35114;SDS011;21292;52.416;13.046;2024-03-08T09:47:48;30.80;;;15.80;;
35114;SDS011;21292;52.416;13.046;2024-03-08T09:50:17;31.85;;;15.65;;
35114;SDS011;21292;52.416;13.046;2024-03-08T09:52:46;34.92;;;17.52;;
35114;SDS011;21292;52.416;13.046;2024-03-08T09:55:15;30.52;;;15.45;;
35114;SDS011;21292;52.416;13.046;2024-03-08T09:57:50;32.97;;;15.88;;
35114;SDS011;21292;52.416;13.046;2024-03-08T10:00:35;30.55;;;15.00;;
35114;SDS011;21292;52.416;13.046;2024-03-08T10:03:04;28.17;;;15.73;;
35114;SDS011;21292;52.416;13.046;2024-03-08T10:05:32;32.97;;;16.55;;
35114;SDS011;21292;52.416;13.046;2024-03-08T10:08:00;30.15;;;15.32;;
35114;SDS011;21292;52.416;13.046;2024-03-08T10:10:28;32.80;;;16.13;;
35114;SDS011;21292;52.416;13.046;2024-03-08T10:12:58;38.55;;;16.60;;
35114;SDS011;21292;52.416;13.046;2024-03-08T10:15:27;34.03;;;17.90;;
35114;SDS011;21292;52.416;13.046;2024-03-08T10:17:57;31.92;;;16.98;;
35114;SDS011;21292;52.416;13.046;2024-03-08T10:20:25;32.80;;;16.65;;
35114;SDS011;21292;52.416;13.046;2024-03-08T10:22:54;34.58;;;16.27;;
35114;SDS011;21292;52.416;13.046;2024-03-08T10:25:36;33.80;;;17.88;;
35114;SDS011;21292;52.416;13.046;2024-03-08T10:28:06;31.98;;;16.60;;
35114;SDS011;21292;52.416;13.046;2024-03-08T10:30:34;31.77;;;15.77;;
35114;SDS011;21292;52.416;13.046;2024-03-08T10:33:03;29.13;;;13.90;;
35114;SDS011;21292;52.416;13.046;2024-03-08T10:35:32;27.95;;;15.52;;
35114;SDS011;21292;52.416;13.046;2024-03-08T10:38:00;41.13;;;24.17;;
35114;SDS011;21292;52.416;13.046;2024-03-08T10:43:00;30.38;;;15.38;;
35114;SDS011;21292;52.416;13.046;2024-03-08T10:45:34;30.33;;;16.48;;
35114;SDS011;21292;52.416;13.046;2024-03-08T10:50:35;23.55;;;13.35;;
35114;SDS011;21292;52.416;13.046;2024-03-08T10:53:04;28.08;;;15.35;;
35114;SDS011;21292;52.416;13.046;2024-03-08T10:55:34;33.92;;;14.90;;
35114;SDS011;21292;52.416;13.046;2024-03-08T10:58:04;28.30;;;15.80;;
35114;SDS011;21292;52.416;13.046;2024-03-08T11:00:36;28.70;;;15.57;;
35114;SDS011;21292;52.416;13.046;2024-03-08T11:03:04;27.58;;;14.63;;
35114;SDS011;21292;52.416;13.046;2024-03-08T11:05:36;29.40;;;14.80;;
35114;SDS011;21292;52.416;13.046;2024-03-08T11:10:48;28.98;;;16.42;;
35114;SDS011;21292;52.416;13.046;2024-03-08T11:13:34;27.38;;;14.27;;
35114;SDS011;21292;52.416;13.046;2024-03-08T11:16:08;31.65;;;16.08;;
35114;SDS011;21292;52.416;13.046;2024-03-08T11:18:36;28.52;;;14.73;;
35114;SDS011;21292;52.416;13.046;2024-03-08T11:21:07;29.10;;;14.63;;
35114;SDS011;21292;52.416;13.046;2024-03-08T11:23:39;30.70;;;14.13;;
35114;SDS011;21292;52.416;13.046;2024-03-08T11:26:17;27.88;;;15.25;;
35114;SDS011;21292;52.416;13.046;2024-03-08T11:28:46;33.00;;;15.23;;
35114;SDS011;21292;52.416;13.046;2024-03-08T11:31:25;23.95;;;14.15;;
35114;SDS011;21292;52.416;13.046;2024-03-08T11:33:55;28.70;;;13.60;;
35114;SDS011;21292;52.416;13.046;2024-03-08T11:36:24;24.88;;;13.10;;
35114;SDS011;21292;52.416;13.046;2024-03-08T11:38:52;26.50;;;13.98;;
35114;SDS011;21292;52.416;13.046;2024-03-08T11:41:22;25.60;;;12.48;;
35114;SDS011;21292;52.416;13.046;2024-03-08T11:44:01;23.83;;;13.63;;
35114;SDS011;21292;52.416;13.046;2024-03-08T11:46:34;23.80;;;12.82;;
35114;SDS011;21292;52.416;13.046;2024-03-08T11:49:03;32.03;;;13.55;;
35114;SDS011;21292;52.416;13.046;2024-03-08T11:51:32;28.10;;;13.70;;
35114;SDS011;21292;52.416;13.046;2024-03-08T11:54:01;25.70;;;13.45;;
35114;SDS011;21292;52.416;13.046;2024-03-08T11:56:29;26.42;;;14.10;;
35114;SDS011;21292;52.416;13.046;2024-03-08T11:58:59;23.30;;;12.70;;
35114;SDS011;21292;52.416;13.046;2024-03-08T12:01:28;24.90;;;12.52;;
35114;SDS011;21292;52.416;13.046;2024-03-08T12:03:59;25.63;;;12.95;;
35114;SDS011;21292;52.416;13.046;2024-03-08T12:06:35;31.90;;;14.38;;
35114;SDS011;21292;52.416;13.046;2024-03-08T12:09:07;27.65;;;14.07;;
35114;SDS011;21292;52.416;13.046;2024-03-08T12:11:37;23.35;;;13.23;;
35114;SDS011;21292;52.416;13.046;2024-03-08T12:14:06;27.42;;;12.77;;
35114;SDS011;21292;52.416;13.046;2024-03-08T12:16:36;27.38;;;13.80;;
35114;SDS011;21292;52.416;13.046;2024-03-08T12:19:05;29.10;;;14.32;;
35114;SDS011;21292;52.416;13.046;2024-03-08T12:21:33;24.42;;;12.98;;
35114;SDS011;21292;52.416;13.046;2024-03-08T12:24:03;32.60;;;15.38;;
35114;SDS011;21292;52.416;13.046;2024-03-08T12:26:35;25.00;;;13.80;;
35114;SDS011;21292;52.416;13.046;2024-03-08T12:31:38;23.38;;;12.68;;
35114;SDS011;21292;52.416;13.046;2024-03-08T12:34:10;21.27;;;11.15;;
35114;SDS011;21292;52.416;13.046;2024-03-08T12:36:44;23.42;;;12.90;;
35114;SDS011;21292;52.416;13.046;2024-03-08T12:39:15;23.70;;;12.73;;
35114;SDS011;21292;52.416;13.046;2024-03-08T12:41:44;25.25;;;12.32;;
35114;SDS011;21292;52.416;13.046;2024-03-08T12:44:14;22.95;;;12.02;;
35114;SDS011;21292;52.416;13.046;2024-03-08T12:46:43;24.88;;;11.75;;
35114;SDS011;21292;52.416;13.046;2024-03-08T12:49:13;22.90;;;13.27;;
35114;SDS011;21292;52.416;13.046;2024-03-08T12:52:00;21.60;;;11.63;;
35114;SDS011;21292;52.416;13.046;2024-03-08T12:54:28;19.92;;;10.80;;
35114;SDS011;21292;52.416;13.046;2024-03-08T12:56:57;22.60;;;11.52;;
35114;SDS011;21292;52.416;13.046;2024-03-08T12:59:25;18.67;;;11.13;;
35114;SDS011;21292;52.416;13.046;2024-03-08T13:01:54;23.60;;;11.45;;
35114;SDS011;21292;52.416;13.046;2024-03-08T13:04:26;21.70;;;11.27;;
35114;SDS011;21292;52.416;13.046;2024-03-08T13:06:54;20.70;;;10.80;;
35114;SDS011;21292;52.416;13.046;2024-03-08T13:09:23;17.70;;;10.15;;
35114;SDS011;21292;52.416;13.046;2024-03-08T13:11:54;19.00;;;10.77;;
35114;SDS011;21292;52.416;13.046;2024-03-08T13:14:25;24.80;;;11.50;;
35114;SDS011;21292;52.416;13.046;2024-03-08T13:16:53;64.88;;;32.25;;
35114;SDS011;21292;52.416;13.046;2024-03-08T13:19:21;21.15;;;12.00;;
35114;SDS011;21292;52.416;13.046;2024-03-08T13:21:51;23.10;;;10.65;;
35114;SDS011;21292;52.416;13.046;2024-03-08T13:24:20;23.08;;;10.35;;
35114;SDS011;21292;52.416;13.046;2024-03-08T13:26:48;17.92;;;10.00;;
35114;SDS011;21292;52.416;13.046;2024-03-08T13:29:17;20.85;;;10.60;;
35114;SDS011;21292;52.416;13.046;2024-03-08T13:31:45;22.00;;;10.80;;
35114;SDS011;21292;52.416;13.046;2024-03-08T13:34:19;18.60;;;9.05;;
35114;SDS011;21292;52.416;13.046;2024-03-08T13:36:56;19.40;;;10.68;;
35114;SDS011;21292;52.416;13.046;2024-03-08T13:39:28;20.92;;;11.13;;
35114;SDS011;21292;52.416;13.046;2024-03-08T13:41:58;17.30;;;9.77;;
35114;SDS011;21292;52.416;13.046;2024-03-08T13:44:27;21.55;;;11.30;;
35114;SDS011;21292;52.416;13.046;2024-03-08T13:46:55;22.60;;;9.98;;
35114;SDS011;21292;52.416;13.046;2024-03-08T13:49:25;16.20;;;10.45;;
35114;SDS011;21292;52.416;13.046;2024-03-08T13:51:55;22.88;;;10.85;;
35114;SDS011;21292;52.416;13.046;2024-03-08T13:54:25;20.08;;;10.27;;
35114;SDS011;21292;52.416;13.046;2024-03-08T13:59:25;20.73;;;10.23;;
35114;SDS011;21292;52.416;13.046;2024-03-08T14:01:56;17.80;;;9.73;;
35114;SDS011;21292;52.416;13.046;2024-03-08T14:04:25;19.23;;;10.80;;
35114;SDS011;21292;52.416;13.046;2024-03-08T14:06:56;17.17;;;10.02;;
35114;SDS011;21292;52.416;13.046;2024-03-08T14:09:30;16.70;;;8.90;;
35114;SDS011;21292;52.416;13.046;2024-03-08T14:12:00;15.35;;;8.65;;
35114;SDS011;21292;52.416;13.046;2024-03-08T14:14:30;19.50;;;9.98;;
35114;SDS011;21292;52.416;13.046;2024-03-08T14:17:01;17.35;;;10.05;;
35114;SDS011;21292;52.416;13.046;2024-03-08T14:19:30;18.92;;;9.88;;
35114;SDS011;21292;52.416;13.046;2024-03-08T14:22:00;15.55;;;9.35;;
35114;SDS011;21292;52.416;13.046;2024-03-08T14:24:31;19.30;;;9.60;;
35114;SDS011;21292;52.416;13.046;2024-03-08T14:27:02;16.88;;;9.65;;
35114;SDS011;21292;52.416;13.046;2024-03-08T14:29:31;22.58;;;10.65;;
35114;SDS011;21292;52.416;13.046;2024-03-08T14:31:59;19.77;;;10.13;;
35114;SDS011;21292;52.416;13.046;2024-03-08T14:34:30;26.83;;;11.57;;
35114;SDS011;21292;52.416;13.046;2024-03-08T14:36:58;21.98;;;10.80;;